Mineral Point, Missouri
Current Conditions -  °F | °C
As of 9:15 AM on Thursday 30 Oct 2014 (Local Time) from KFAM Reporting Station
Clear Clear  
Wind Chill: 43°   Ceiling: Unl
Heat Index: 43°   Visibility: 10mi
Dew Point: 37°   Wind: 0mph
Humidity: 81%   Direction: NA
Pressure: 30.16"   Gusts: NA
Location:  37.94°N, 90.72°W
Report Text: KFAM 301415Z AUTO 00000KT 10SM CLR 06/03 A3016 RMK AO1
Loading
Personal Weather Stations






























Interactive Weather Map
Tropical Storm Tracking
New forecast layout! Learn more

10-Day Weather Forecast

Advertisements
Track Severe Weather on mobile